sensor_id;sensor_type;location;lat;lon;timestamp;temperature;humidity
11848;DHT22;5983;49.966;8.052;2022-11-20T00:00:22;4.20;99.90
11848;DHT22;5983;49.966;8.052;2022-11-20T00:02:49;4.20;99.90
11848;DHT22;5983;49.966;8.052;2022-11-20T00:05:16;4.20;99.90
11848;DHT22;5983;49.966;8.052;2022-11-20T00:07:45;4.20;99.90
11848;DHT22;5983;49.966;8.052;2022-11-20T00:10:12;4.20;99.90
11848;DHT22;5983;49.966;8.052;2022-11-20T00:12:39;4.20;99.90
11848;DHT22;5983;49.966;8.052;2022-11-20T00:15:07;4.20;99.90
11848;DHT22;5983;49.966;8.052;2022-11-20T00:17:35;4.20;99.90
11848;DHT22;5983;49.966;8.052;2022-11-20T00:20:02;4.20;99.90
11848;DHT22;5983;49.966;8.052;2022-11-20T00:22:30;4.20;99.90
11848;DHT22;5983;49.966;8.052;2022-11-20T00:24:58;4.20;99.90
11848;DHT22;5983;49.966;8.052;2022-11-20T00:27:25;4.20;99.90
11848;DHT22;5983;49.966;8.052;2022-11-20T00:29:52;4.20;99.90
11848;DHT22;5983;49.966;8.052;2022-11-20T00:32:19;4.20;99.90
11848;DHT22;5983;49.966;8.052;2022-11-20T00:34:46;4.20;99.90
11848;DHT22;5983;49.966;8.052;2022-11-20T00:37:13;4.20;99.90
11848;DHT22;5983;49.966;8.052;2022-11-20T00:39:40;4.20;99.90
11848;DHT22;5983;49.966;8.052;2022-11-20T00:42:08;4.10;99.90
11848;DHT22;5983;49.966;8.052;2022-11-20T00:44:35;4.20;99.90
11848;DHT22;5983;49.966;8.052;2022-11-20T00:47:02;4.20;99.90
11848;DHT22;5983;49.966;8.052;2022-11-20T00:49:29;4.20;99.90
11848;DHT22;5983;49.966;8.052;2022-11-20T00:51:56;4.20;99.90
11848;DHT22;5983;49.966;8.052;2022-11-20T00:54:23;4.20;99.90
11848;DHT22;5983;49.966;8.052;2022-11-20T00:56:52;4.20;99.90
11848;DHT22;5983;49.966;8.052;2022-11-20T00:59:21;4.30;99.90
11848;DHT22;5983;49.966;8.052;2022-11-20T01:01:48;4.20;99.90
11848;DHT22;5983;49.966;8.052;2022-11-20T01:04:15;4.20;99.90
11848;DHT22;5983;49.966;8.052;2022-11-20T01:06:42;4.20;99.90
11848;DHT22;5983;49.966;8.052;2022-11-20T01:09:10;4.10;99.90
11848;DHT22;5983;49.966;8.052;2022-11-20T01:11:40;4.10;99.90
11848;DHT22;5983;49.966;8.052;2022-11-20T01:14:10;4.10;99.90
11848;DHT22;5983;49.966;8.052;2022-11-20T01:16:42;4.10;99.90
11848;DHT22;5983;49.966;8.052;2022-11-20T01:19:13;4.10;99.90
11848;DHT22;5983;49.966;8.052;2022-11-20T01:21:43;4.10;99.90
11848;DHT22;5983;49.966;8.052;2022-11-20T01:24:14;4.10;99.90
11848;DHT22;5983;49.966;8.052;2022-11-20T01:26:44;4.20;99.90
11848;DHT22;5983;49.966;8.052;2022-11-20T01:29:14;4.20;99.90
11848;DHT22;5983;49.966;8.052;2022-11-20T01:31:44;4.10;99.90
11848;DHT22;5983;49.966;8.052;2022-11-20T01:34:13;4.20;99.90
11848;DHT22;5983;49.966;8.052;2022-11-20T01:36:42;4.20;99.90
11848;DHT22;5983;49.966;8.052;2022-11-20T01:39:12;4.20;99.90
11848;DHT22;5983;49.966;8.052;2022-11-20T01:41:40;4.20;99.90
11848;DHT22;5983;49.966;8.052;2022-11-20T01:44:45;4.20;99.90
11848;DHT22;5983;49.966;8.052;2022-11-20T01:47:21;4.20;99.90
11848;DHT22;5983;49.966;8.052;2022-11-20T01:49:57;4.20;99.90
11848;DHT22;5983;49.966;8.052;2022-11-20T01:52:31;4.20;99.90
11848;DHT22;5983;49.966;8.052;2022-11-20T01:55:04;4.20;99.90
11848;DHT22;5983;49.966;8.052;2022-11-20T01:57:34;4.20;99.90
11848;DHT22;5983;49.966;8.052;2022-11-20T02:00:05;4.20;99.90
11848;DHT22;5983;49.966;8.052;2022-11-20T02:02:36;4.20;99.90
11848;DHT22;5983;49.966;8.052;2022-11-20T02:05:14;4.20;99.90
11848;DHT22;5983;49.966;8.052;2022-11-20T02:07:47;4.20;99.90
11848;DHT22;5983;49.966;8.052;2022-11-20T02:10:15;4.20;99.90
11848;DHT22;5983;49.966;8.052;2022-11-20T02:12:43;4.20;99.90
11848;DHT22;5983;49.966;8.052;2022-11-20T02:15:27;4.30;99.90
11848;DHT22;5983;49.966;8.052;2022-11-20T02:17:55;4.20;99.90
11848;DHT22;5983;49.966;8.052;2022-11-20T02:20:23;4.20;99.90
11848;DHT22;5983;49.966;8.052;2022-11-20T02:22:54;4.20;99.90
11848;DHT22;5983;49.966;8.052;2022-11-20T02:25:28;4.20;99.90
11848;DHT22;5983;49.966;8.052;2022-11-20T02:27:57;4.20;99.90
11848;DHT22;5983;49.966;8.052;2022-11-20T02:30:24;4.20;99.90
11848;DHT22;5983;49.966;8.052;2022-11-20T02:32:52;4.20;99.90
11848;DHT22;5983;49.966;8.052;2022-11-20T02:35:44;4.20;99.90
11848;DHT22;5983;49.966;8.052;2022-11-20T02:38:13;4.20;99.90
11848;DHT22;5983;49.966;8.052;2022-11-20T02:40:42;4.20;99.90
11848;DHT22;5983;49.966;8.052;2022-11-20T02:43:09;4.20;99.90
11848;DHT22;5983;49.966;8.052;2022-11-20T02:45:37;4.20;99.90
11848;DHT22;5983;49.966;8.052;2022-11-20T02:48:06;4.20;99.90
11848;DHT22;5983;49.966;8.052;2022-11-20T02:50:37;4.30;99.90
11848;DHT22;5983;49.966;8.052;2022-11-20T02:53:05;4.30;99.90
11848;DHT22;5983;49.966;8.052;2022-11-20T02:55:33;4.30;99.90
11848;DHT22;5983;49.966;8.052;2022-11-20T02:58:01;4.20;99.90
11848;DHT22;5983;49.966;8.052;2022-11-20T03:00:28;4.20;99.90
11848;DHT22;5983;49.966;8.052;2022-11-20T03:02:55;4.30;99.90
11848;DHT22;5983;49.966;8.052;2022-11-20T03:05:22;4.20;99.90
11848;DHT22;5983;49.966;8.052;2022-11-20T03:07:49;4.30;99.90
11848;DHT22;5983;49.966;8.052;2022-11-20T03:10:16;4.30;99.90
11848;DHT22;5983;49.966;8.052;2022-11-20T03:12:43;4.30;99.90
11848;DHT22;5983;49.966;8.052;2022-11-20T03:15:12;4.20;99.90
11848;DHT22;5983;49.966;8.052;2022-11-20T03:17:39;4.20;99.90
11848;DHT22;5983;49.966;8.052;2022-11-20T03:20:07;4.20;99.90
11848;DHT22;5983;49.966;8.052;2022-11-20T03:22:35;4.20;99.90
11848;DHT22;5983;49.966;8.052;2022-11-20T03:25:02;4.20;99.90
11848;DHT22;5983;49.966;8.052;2022-11-20T03:27:32;4.20;99.90
11848;DHT22;5983;49.966;8.052;2022-11-20T03:30:00;4.20;99.90
11848;DHT22;5983;49.966;8.052;2022-11-20T03:32:28;4.20;99.90
11848;DHT22;5983;49.966;8.052;2022-11-20T03:34:56;4.20;99.90
11848;DHT22;5983;49.966;8.052;2022-11-20T03:37:22;4.10;99.90
11848;DHT22;5983;49.966;8.052;2022-11-20T03:39:50;4.10;99.90
11848;DHT22;5983;49.966;8.052;2022-11-20T03:42:16;4.10;99.90
11848;DHT22;5983;49.966;8.052;2022-11-20T03:45:01;4.00;99.90
11848;DHT22;5983;49.966;8.052;2022-11-20T03:47:29;4.00;99.90
11848;DHT22;5983;49.966;8.052;2022-11-20T03:49:56;4.10;99.90
11848;DHT22;5983;49.966;8.052;2022-11-20T03:52:23;4.10;99.90
11848;DHT22;5983;49.966;8.052;2022-11-20T03:54:50;4.10;99.90
11848;DHT22;5983;49.966;8.052;2022-11-20T03:57:17;4.10;99.90
11848;DHT22;5983;49.966;8.052;2022-11-20T03:59:44;4.10;99.90
11848;DHT22;5983;49.966;8.052;2022-11-20T04:02:11;4.10;99.90
11848;DHT22;5983;49.966;8.052;2022-11-20T04:04:39;4.10;99.90
11848;DHT22;5983;49.966;8.052;2022-11-20T04:07:06;4.10;99.90
11848;DHT22;5983;49.966;8.052;2022-11-20T04:09:33;4.10;99.90
11848;DHT22;5983;49.966;8.052;2022-11-20T04:12:00;4.00;99.90
11848;DHT22;5983;49.966;8.052;2022-11-20T04:14:27;4.00;99.90
11848;DHT22;5983;49.966;8.052;2022-11-20T04:16:54;4.10;99.90
11848;DHT22;5983;49.966;8.052;2022-11-20T04:19:21;4.10;99.90
11848;DHT22;5983;49.966;8.052;2022-11-20T04:21:50;4.10;99.90
11848;DHT22;5983;49.966;8.052;2022-11-20T04:24:16;4.20;99.90
11848;DHT22;5983;49.966;8.052;2022-11-20T04:26:43;4.20;99.90
11848;DHT22;5983;49.966;8.052;2022-11-20T04:29:11;4.20;99.90
11848;DHT22;5983;49.966;8.052;2022-11-20T04:31:38;4.20;99.90
11848;DHT22;5983;49.966;8.052;2022-11-20T04:34:06;4.20;99.90
11848;DHT22;5983;49.966;8.052;2022-11-20T04:36:34;4.10;99.90
11848;DHT22;5983;49.966;8.052;2022-11-20T04:39:05;4.10;99.90
11848;DHT22;5983;49.966;8.052;2022-11-20T04:41:35;4.20;99.90
11848;DHT22;5983;49.966;8.052;2022-11-20T04:44:04;4.10;99.90
11848;DHT22;5983;49.966;8.052;2022-11-20T04:46:34;4.10;99.90
11848;DHT22;5983;49.966;8.052;2022-11-20T04:49:02;4.10;99.90
11848;DHT22;5983;49.966;8.052;2022-11-20T04:51:30;4.00;99.90
11848;DHT22;5983;49.966;8.052;2022-11-20T04:53:57;4.00;99.90
11848;DHT22;5983;49.966;8.052;2022-11-20T04:56:25;4.00;99.90
11848;DHT22;5983;49.966;8.052;2022-11-20T04:58:52;4.00;99.90
11848;DHT22;5983;49.966;8.052;2022-11-20T05:01:21;4.10;99.90
11848;DHT22;5983;49.966;8.052;2022-11-20T05:03:49;4.10;99.90
11848;DHT22;5983;49.966;8.052;2022-11-20T05:06:19;4.00;99.90
11848;DHT22;5983;49.966;8.052;2022-11-20T05:08:48;4.10;99.90
11848;DHT22;5983;49.966;8.052;2022-11-20T05:11:17;4.00;99.90
11848;DHT22;5983;49.966;8.052;2022-11-20T05:13:47;4.00;99.90
11848;DHT22;5983;49.966;8.052;2022-11-20T05:16:16;4.00;99.90
11848;DHT22;5983;49.966;8.052;2022-11-20T05:18:45;3.90;99.90
11848;DHT22;5983;49.966;8.052;2022-11-20T05:21:13;3.90;99.90
11848;DHT22;5983;49.966;8.052;2022-11-20T05:23:41;4.00;99.90
11848;DHT22;5983;49.966;8.052;2022-11-20T05:26:13;4.00;99.90
11848;DHT22;5983;49.966;8.052;2022-11-20T05:28:42;4.10;99.90
11848;DHT22;5983;49.966;8.052;2022-11-20T05:31:12;4.10;99.90
11848;DHT22;5983;49.966;8.052;2022-11-20T05:33:41;4.10;99.90
11848;DHT22;5983;49.966;8.052;2022-11-20T05:36:09;4.10;99.90
11848;DHT22;5983;49.966;8.052;2022-11-20T05:38:37;4.10;99.90
11848;DHT22;5983;49.966;8.052;2022-11-20T05:41:06;4.10;99.90
11848;DHT22;5983;49.966;8.052;2022-11-20T05:43:35;4.10;99.90
11848;DHT22;5983;49.966;8.052;2022-11-20T05:46:03;4.00;99.90
11848;DHT22;5983;49.966;8.052;2022-11-20T05:48:34;4.00;99.90
11848;DHT22;5983;49.966;8.052;2022-11-20T05:51:04;4.00;99.90
11848;DHT22;5983;49.966;8.052;2022-11-20T05:53:33;4.00;99.90
11848;DHT22;5983;49.966;8.052;2022-11-20T05:56:02;4.10;99.90
11848;DHT22;5983;49.966;8.052;2022-11-20T05:58:31;4.10;99.90
11848;DHT22;5983;49.966;8.052;2022-11-20T06:01:04;4.10;99.90
11848;DHT22;5983;49.966;8.052;2022-11-20T06:03:33;4.10;99.90
11848;DHT22;5983;49.966;8.052;2022-11-20T06:06:01;4.20;99.90
11848;DHT22;5983;49.966;8.052;2022-11-20T06:08:29;4.20;99.90
11848;DHT22;5983;49.966;8.052;2022-11-20T06:10:56;4.20;99.90
11848;DHT22;5983;49.966;8.052;2022-11-20T06:13:24;4.20;99.90
11848;DHT22;5983;49.966;8.052;2022-11-20T06:15:51;4.20;99.90
11848;DHT22;5983;49.966;8.052;2022-11-20T06:18:20;4.20;99.90
11848;DHT22;5983;49.966;8.052;2022-11-20T06:20:48;4.20;99.90
11848;DHT22;5983;49.966;8.052;2022-11-20T06:23:16;4.10;99.90
11848;DHT22;5983;49.966;8.052;2022-11-20T06:25:43;3.90;99.90
11848;DHT22;5983;49.966;8.052;2022-11-20T06:28:10;3.80;99.90
11848;DHT22;5983;49.966;8.052;2022-11-20T06:30:37;3.90;99.90
11848;DHT22;5983;49.966;8.052;2022-11-20T06:33:10;3.90;99.90
11848;DHT22;5983;49.966;8.052;2022-11-20T06:35:37;3.90;99.90
11848;DHT22;5983;49.966;8.052;2022-11-20T06:38:06;4.00;99.90
11848;DHT22;5983;49.966;8.052;2022-11-20T06:40:33;4.00;99.90
11848;DHT22;5983;49.966;8.052;2022-11-20T06:43:00;4.00;99.90
11848;DHT22;5983;49.966;8.052;2022-11-20T06:45:27;4.00;99.90
11848;DHT22;5983;49.966;8.052;2022-11-20T06:47:54;4.10;99.90
11848;DHT22;5983;49.966;8.052;2022-11-20T06:50:24;4.10;99.90
11848;DHT22;5983;49.966;8.052;2022-11-20T06:52:51;4.20;99.90
11848;DHT22;5983;49.966;8.052;2022-11-20T06:55:19;4.20;99.90
11848;DHT22;5983;49.966;8.052;2022-11-20T06:57:46;4.20;99.90
11848;DHT22;5983;49.966;8.052;2022-11-20T07:00:14;4.20;99.90
11848;DHT22;5983;49.966;8.052;2022-11-20T07:02:41;4.20;99.90
11848;DHT22;5983;49.966;8.052;2022-11-20T07:05:08;4.20;99.90
11848;DHT22;5983;49.966;8.052;2022-11-20T07:07:35;4.20;99.90
11848;DHT22;5983;49.966;8.052;2022-11-20T07:10:03;4.30;99.90
11848;DHT22;5983;49.966;8.052;2022-11-20T07:12:31;4.30;99.90
11848;DHT22;5983;49.966;8.052;2022-11-20T07:14:58;4.30;99.90
11848;DHT22;5983;49.966;8.052;2022-11-20T07:17:25;4.30;99.90
11848;DHT22;5983;49.966;8.052;2022-11-20T07:19:52;4.30;99.90
11848;DHT22;5983;49.966;8.052;2022-11-20T07:22:19;4.30;99.90
11848;DHT22;5983;49.966;8.052;2022-11-20T07:24:47;4.30;99.90
11848;DHT22;5983;49.966;8.052;2022-11-20T07:27:14;4.30;99.90
11848;DHT22;5983;49.966;8.052;2022-11-20T07:29:42;4.30;99.90
11848;DHT22;5983;49.966;8.052;2022-11-20T07:32:09;4.30;99.90
11848;DHT22;5983;49.966;8.052;2022-11-20T07:34:36;4.40;99.90
11848;DHT22;5983;49.966;8.052;2022-11-20T07:37:03;4.40;99.90
11848;DHT22;5983;49.966;8.052;2022-11-20T07:39:30;4.40;99.90
11848;DHT22;5983;49.966;8.052;2022-11-20T07:41:57;4.40;99.90
11848;DHT22;5983;49.966;8.052;2022-11-20T07:44:24;4.50;99.90
11848;DHT22;5983;49.966;8.052;2022-11-20T07:46:53;4.50;99.90
11848;DHT22;5983;49.966;8.052;2022-11-20T07:49:20;4.50;99.90
11848;DHT22;5983;49.966;8.052;2022-11-20T07:51:49;4.50;99.90
11848;DHT22;5983;49.966;8.052;2022-11-20T07:54:27;4.50;99.90
11848;DHT22;5983;49.966;8.052;2022-11-20T07:56:54;4.60;99.90
11848;DHT22;5983;49.966;8.052;2022-11-20T07:59:21;4.60;99.90
11848;DHT22;5983;49.966;8.052;2022-11-20T08:01:48;4.70;99.90
11848;DHT22;5983;49.966;8.052;2022-11-20T08:04:17;4.80;99.90
11848;DHT22;5983;49.966;8.052;2022-11-20T08:06:44;4.80;99.90
11848;DHT22;5983;49.966;8.052;2022-11-20T08:09:11;4.80;99.90
11848;DHT22;5983;49.966;8.052;2022-11-20T08:11:38;4.80;99.90
11848;DHT22;5983;49.966;8.052;2022-11-20T08:14:22;4.80;99.90
11848;DHT22;5983;49.966;8.052;2022-11-20T08:16:49;4.80;99.90
11848;DHT22;5983;49.966;8.052;2022-11-20T08:19:18;4.80;99.90
11848;DHT22;5983;49.966;8.052;2022-11-20T08:21:45;4.80;99.90
11848;DHT22;5983;49.966;8.052;2022-11-20T08:24:12;4.80;99.90
11848;DHT22;5983;49.966;8.052;2022-11-20T08:26:40;4.90;99.90
11848;DHT22;5983;49.966;8.052;2022-11-20T08:29:07;4.90;99.90
11848;DHT22;5983;49.966;8.052;2022-11-20T08:31:34;4.90;99.90
11848;DHT22;5983;49.966;8.052;2022-11-20T08:34:01;5.00;99.90
11848;DHT22;5983;49.966;8.052;2022-11-20T08:36:33;5.10;99.90
11848;DHT22;5983;49.966;8.052;2022-11-20T08:39:00;5.10;99.90
11848;DHT22;5983;49.966;8.052;2022-11-20T08:41:28;5.10;99.90
11848;DHT22;5983;49.966;8.052;2022-11-20T08:43:59;5.10;99.90
11848;DHT22;5983;49.966;8.052;2022-11-20T08:46:31;5.20;99.90
11848;DHT22;5983;49.966;8.052;2022-11-20T08:48:59;5.20;99.90
11848;DHT22;5983;49.966;8.052;2022-11-20T08:51:26;5.20;99.90
11848;DHT22;5983;49.966;8.052;2022-11-20T08:53:54;5.10;99.90
11848;DHT22;5983;49.966;8.052;2022-11-20T08:56:21;5.10;99.90
11848;DHT22;5983;49.966;8.052;2022-11-20T08:58:50;5.10;99.90
11848;DHT22;5983;49.966;8.052;2022-11-20T09:01:18;5.10;99.90
11848;DHT22;5983;49.966;8.052;2022-11-20T09:03:45;5.10;99.90
11848;DHT22;5983;49.966;8.052;2022-11-20T09:06:13;5.10;99.90
11848;DHT22;5983;49.966;8.052;2022-11-20T09:08:40;5.10;99.90
11848;DHT22;5983;49.966;8.052;2022-11-20T09:11:09;5.10;99.90
11848;DHT22;5983;49.966;8.052;2022-11-20T09:13:36;5.10;99.90
11848;DHT22;5983;49.966;8.052;2022-11-20T09:16:06;5.10;99.90
11848;DHT22;5983;49.966;8.052;2022-11-20T09:18:36;5.10;99.90
11848;DHT22;5983;49.966;8.052;2022-11-20T09:21:06;5.10;99.90
11848;DHT22;5983;49.966;8.052;2022-11-20T09:23:36;5.10;99.90
11848;DHT22;5983;49.966;8.052;2022-11-20T09:26:04;5.10;99.90
11848;DHT22;5983;49.966;8.052;2022-11-20T09:28:34;5.10;99.90
11848;DHT22;5983;49.966;8.052;2022-11-20T09:31:04;5.10;99.90
11848;DHT22;5983;49.966;8.052;2022-11-20T09:33:32;5.10;99.90
11848;DHT22;5983;49.966;8.052;2022-11-20T09:35:59;5.10;99.90
11848;DHT22;5983;49.966;8.052;2022-11-20T09:38:26;5.10;99.90
11848;DHT22;5983;49.966;8.052;2022-11-20T09:40:57;5.10;99.90
11848;DHT22;5983;49.966;8.052;2022-11-20T09:43:39;5.20;99.90
11848;DHT22;5983;49.966;8.052;2022-11-20T09:46:21;5.20;99.90
11848;DHT22;5983;49.966;8.052;2022-11-20T09:49:14;5.30;99.90
11848;DHT22;5983;49.966;8.052;2022-11-20T09:51:54;5.30;99.90
11848;DHT22;5983;49.966;8.052;2022-11-20T09:54:29;5.30;99.90
11848;DHT22;5983;49.966;8.052;2022-11-20T09:57:00;5.30;99.90
11848;DHT22;5983;49.966;8.052;2022-11-20T09:59:35;5.30;99.90
11848;DHT22;5983;49.966;8.052;2022-11-20T10:02:16;5.40;99.90
11848;DHT22;5983;49.966;8.052;2022-11-20T10:04:51;5.40;99.90
11848;DHT22;5983;49.966;8.052;2022-11-20T10:07:24;5.40;99.90
11848;DHT22;5983;49.966;8.052;2022-11-20T10:09:56;5.40;99.90
11848;DHT22;5983;49.966;8.052;2022-11-20T10:12:30;5.50;99.90
11848;DHT22;5983;49.966;8.052;2022-11-20T10:15:27;5.50;99.90
11848;DHT22;5983;49.966;8.052;2022-11-20T10:18:20;5.50;99.90
11848;DHT22;5983;49.966;8.052;2022-11-20T10:20:58;5.50;99.90
11848;DHT22;5983;49.966;8.052;2022-11-20T10:23:50;5.50;99.90
11848;DHT22;5983;49.966;8.052;2022-11-20T10:30:27;5.50;99.90
11848;DHT22;5983;49.966;8.052;2022-11-20T10:33:03;5.50;99.90
11848;DHT22;5983;49.966;8.052;2022-11-20T10:35:40;5.50;99.90
11848;DHT22;5983;49.966;8.052;2022-11-20T10:38:16;5.50;99.90
11848;DHT22;5983;49.966;8.052;2022-11-20T10:40:51;5.50;99.90
11848;DHT22;5983;49.966;8.052;2022-11-20T10:43:41;5.60;99.90
11848;DHT22;5983;49.966;8.052;2022-11-20T10:46:14;5.70;99.90
11848;DHT22;5983;49.966;8.052;2022-11-20T10:48:44;5.70;99.90
11848;DHT22;5983;49.966;8.052;2022-11-20T10:51:18;5.80;99.90
11848;DHT22;5983;49.966;8.052;2022-11-20T10:54:04;5.80;99.90
11848;DHT22;5983;49.966;8.052;2022-11-20T10:56:46;5.90;99.90
11848;DHT22;5983;49.966;8.052;2022-11-20T10:59:41;5.90;99.90
11848;DHT22;5983;49.966;8.052;2022-11-20T11:02:19;6.00;99.90
11848;DHT22;5983;49.966;8.052;2022-11-20T11:04:49;6.00;99.90
11848;DHT22;5983;49.966;8.052;2022-11-20T11:07:20;6.00;99.90
11848;DHT22;5983;49.966;8.052;2022-11-20T11:09:52;6.00;99.90
11848;DHT22;5983;49.966;8.052;2022-11-20T11:12:23;6.10;99.90
11848;DHT22;5983;49.966;8.052;2022-11-20T11:14:53;6.10;99.90
11848;DHT22;5983;49.966;8.052;2022-11-20T11:17:26;6.20;99.90
11848;DHT22;5983;49.966;8.052;2022-11-20T11:20:03;6.20;99.90
11848;DHT22;5983;49.966;8.052;2022-11-20T11:22:34;6.30;99.90
11848;DHT22;5983;49.966;8.052;2022-11-20T11:25:23;6.40;99.90
11848;DHT22;5983;49.966;8.052;2022-11-20T11:27:56;6.40;99.90
11848;DHT22;5983;49.966;8.052;2022-11-20T11:30:26;6.50;99.90
11848;DHT22;5983;49.966;8.052;2022-11-20T11:33:09;6.50;99.90
11848;DHT22;5983;49.966;8.052;2022-11-20T11:35:45;6.50;99.90
11848;DHT22;5983;49.966;8.052;2022-11-20T11:38:15;6.50;99.90
11848;DHT22;5983;49.966;8.052;2022-11-20T11:40:46;6.60;99.90
11848;DHT22;5983;49.966;8.052;2022-11-20T11:43:19;6.50;99.90
11848;DHT22;5983;49.966;8.052;2022-11-20T11:48:59;6.60;99.90
11848;DHT22;5983;49.966;8.052;2022-11-20T11:51:37;6.70;99.90
11848;DHT22;5983;49.966;8.052;2022-11-20T11:54:17;6.70;99.90
11848;DHT22;5983;49.966;8.052;2022-11-20T11:56:51;6.60;99.90
11848;DHT22;5983;49.966;8.052;2022-11-20T11:59:25;6.50;99.90
11848;DHT22;5983;49.966;8.052;2022-11-20T12:02:04;6.40;99.90
11848;DHT22;5983;49.966;8.052;2022-11-20T12:04:58;6.40;99.90
11848;DHT22;5983;49.966;8.052;2022-11-20T12:07:38;6.30;99.90
11848;DHT22;5983;49.966;8.052;2022-11-20T12:10:17;6.40;99.90
11848;DHT22;5983;49.966;8.052;2022-11-20T12:12:51;6.40;99.90
11848;DHT22;5983;49.966;8.052;2022-11-20T12:15:27;6.60;99.90
11848;DHT22;5983;49.966;8.052;2022-11-20T12:18:10;6.70;99.90
11848;DHT22;5983;49.966;8.052;2022-11-20T12:21:25;6.70;99.90
11848;DHT22;5983;49.966;8.052;2022-11-20T12:24:15;6.70;99.90
11848;DHT22;5983;49.966;8.052;2022-11-20T12:27:05;6.70;99.90
11848;DHT22;5983;49.966;8.052;2022-11-20T12:29:52;6.80;99.90
11848;DHT22;5983;49.966;8.052;2022-11-20T12:36:01;6.90;99.90
11848;DHT22;5983;49.966;8.052;2022-11-20T12:42:53;7.00;99.90
11848;DHT22;5983;49.966;8.052;2022-11-20T12:46:27;6.90;99.90
11848;DHT22;5983;49.966;8.052;2022-11-20T12:49:27;7.00;99.90
11848;DHT22;5983;49.966;8.052;2022-11-20T12:52:20;6.90;99.90
11848;DHT22;5983;49.966;8.052;2022-11-20T12:55:16;6.90;99.90
11848;DHT22;5983;49.966;8.052;2022-11-20T12:57:54;6.90;99.90
11848;DHT22;5983;49.966;8.052;2022-11-20T13:00:34;6.90;99.90
11848;DHT22;5983;49.966;8.052;2022-11-20T13:03:36;6.80;99.90
11848;DHT22;5983;49.966;8.052;2022-11-20T13:09:16;6.70;99.90
11848;DHT22;5983;49.966;8.052;2022-11-20T13:11:56;6.70;99.90
11848;DHT22;5983;49.966;8.052;2022-11-20T13:14:34;6.70;99.90
11848;DHT22;5983;49.966;8.052;2022-11-20T13:17:08;6.70;99.90
11848;DHT22;5983;49.966;8.052;2022-11-20T13:19:39;6.90;99.90
11848;DHT22;5983;49.966;8.052;2022-11-20T13:22:08;7.10;99.90
11848;DHT22;5983;49.966;8.052;2022-11-20T13:24:36;7.30;99.90
11848;DHT22;5983;49.966;8.052;2022-11-20T13:27:17;7.40;99.90
11848;DHT22;5983;49.966;8.052;2022-11-20T13:29:58;7.50;99.90
11848;DHT22;5983;49.966;8.052;2022-11-20T13:32:28;7.60;99.90
11848;DHT22;5983;49.966;8.052;2022-11-20T13:34:59;7.50;99.90
11848;DHT22;5983;49.966;8.052;2022-11-20T13:37:30;7.50;99.90
11848;DHT22;5983;49.966;8.052;2022-11-20T13:40:11;7.60;99.90
11848;DHT22;5983;49.966;8.052;2022-11-20T13:42:44;7.70;99.90
11848;DHT22;5983;49.966;8.052;2022-11-20T13:45:22;7.80;99.90
11848;DHT22;5983;49.966;8.052;2022-11-20T13:47:54;7.80;99.90
11848;DHT22;5983;49.966;8.052;2022-11-20T13:50:38;7.90;99.90
11848;DHT22;5983;49.966;8.052;2022-11-20T13:53:22;7.90;99.90
11848;DHT22;5983;49.966;8.052;2022-11-20T13:56:03;7.80;99.90
11848;DHT22;5983;49.966;8.052;2022-11-20T13:58:47;7.70;99.90
11848;DHT22;5983;49.966;8.052;2022-11-20T14:01:26;7.60;99.90
11848;DHT22;5983;49.966;8.052;2022-11-20T14:03:57;7.50;99.90
11848;DHT22;5983;49.966;8.052;2022-11-20T14:06:27;7.50;99.90
11848;DHT22;5983;49.966;8.052;2022-11-20T14:08:59;7.40;99.90
11848;DHT22;5983;49.966;8.052;2022-11-20T14:11:28;7.40;99.90
11848;DHT22;5983;49.966;8.052;2022-11-20T14:14:01;7.30;99.90
11848;DHT22;5983;49.966;8.052;2022-11-20T14:16:32;7.20;99.90
11848;DHT22;5983;49.966;8.052;2022-11-20T14:19:27;7.20;99.90
11848;DHT22;5983;49.966;8.052;2022-11-20T14:22:16;7.20;99.90
11848;DHT22;5983;49.966;8.052;2022-11-20T14:25:00;7.10;99.90
11848;DHT22;5983;49.966;8.052;2022-11-20T14:27:34;7.10;99.90
11848;DHT22;5983;49.966;8.052;2022-11-20T14:30:13;7.10;99.90
11848;DHT22;5983;49.966;8.052;2022-11-20T14:32:44;7.10;99.90
11848;DHT22;5983;49.966;8.052;2022-11-20T14:35:17;7.10;99.90
11848;DHT22;5983;49.966;8.052;2022-11-20T14:37:50;7.10;99.90
11848;DHT22;5983;49.966;8.052;2022-11-20T14:40:26;7.00;99.90
11848;DHT22;5983;49.966;8.052;2022-11-20T14:42:59;7.00;99.90
11848;DHT22;5983;49.966;8.052;2022-11-20T14:45:28;7.00;99.90
11848;DHT22;5983;49.966;8.052;2022-11-20T14:47:59;6.90;99.90
11848;DHT22;5983;49.966;8.052;2022-11-20T14:50:29;6.90;99.90
11848;DHT22;5983;49.966;8.052;2022-11-20T14:53:00;6.90;99.90
11848;DHT22;5983;49.966;8.052;2022-11-20T14:55:32;6.90;99.90
11848;DHT22;5983;49.966;8.052;2022-11-20T14:58:03;6.80;99.90
11848;DHT22;5983;49.966;8.052;2022-11-20T15:00:35;6.80;99.90
11848;DHT22;5983;49.966;8.052;2022-11-20T15:03:02;6.80;99.90
11848;DHT22;5983;49.966;8.052;2022-11-20T15:05:46;6.80;99.90
11848;DHT22;5983;49.966;8.052;2022-11-20T15:08:16;6.70;99.90
11848;DHT22;5983;49.966;8.052;2022-11-20T15:10:49;6.70;99.90
11848;DHT22;5983;49.966;8.052;2022-11-20T15:13:24;6.80;99.90
11848;DHT22;5983;49.966;8.052;2022-11-20T15:15:58;6.70;99.90
11848;DHT22;5983;49.966;8.052;2022-11-20T15:18:29;6.70;99.90
11848;DHT22;5983;49.966;8.052;2022-11-20T15:21:01;6.70;99.90
11848;DHT22;5983;49.966;8.052;2022-11-20T15:23:34;6.70;99.90
11848;DHT22;5983;49.966;8.052;2022-11-20T15:26:01;6.70;99.90
11848;DHT22;5983;49.966;8.052;2022-11-20T15:28:33;6.60;99.90
11848;DHT22;5983;49.966;8.052;2022-11-20T15:31:04;6.60;99.90
11848;DHT22;5983;49.966;8.052;2022-11-20T15:33:32;6.50;99.90
11848;DHT22;5983;49.966;8.052;2022-11-20T15:35:59;6.50;99.90
11848;DHT22;5983;49.966;8.052;2022-11-20T15:38:27;6.50;99.90
11848;DHT22;5983;49.966;8.052;2022-11-20T15:40:54;6.40;99.90
11848;DHT22;5983;49.966;8.052;2022-11-20T15:43:22;6.40;99.90
11848;DHT22;5983;49.966;8.052;2022-11-20T15:45:50;6.40;99.90
11848;DHT22;5983;49.966;8.052;2022-11-20T15:48:23;6.40;99.90
11848;DHT22;5983;49.966;8.052;2022-11-20T15:50:55;6.40;99.90
11848;DHT22;5983;49.966;8.052;2022-11-20T15:53:24;6.30;99.90
11848;DHT22;5983;49.966;8.052;2022-11-20T15:55:51;6.30;99.90
11848;DHT22;5983;49.966;8.052;2022-11-20T15:58:18;6.30;99.90
11848;DHT22;5983;49.966;8.052;2022-11-20T16:00:45;6.30;99.90
11848;DHT22;5983;49.966;8.052;2022-11-20T16:03:12;6.30;99.90
11848;DHT22;5983;49.966;8.052;2022-11-20T16:05:42;6.30;99.90
11848;DHT22;5983;49.966;8.052;2022-11-20T16:08:09;6.30;99.90
11848;DHT22;5983;49.966;8.052;2022-11-20T16:10:36;6.30;99.90
11848;DHT22;5983;49.966;8.052;2022-11-20T16:13:03;6.20;99.90
11848;DHT22;5983;49.966;8.052;2022-11-20T16:15:51;6.30;99.90
11848;DHT22;5983;49.966;8.052;2022-11-20T16:18:21;6.30;99.90
11848;DHT22;5983;49.966;8.052;2022-11-20T16:20:51;6.20;99.90
11848;DHT22;5983;49.966;8.052;2022-11-20T16:23:20;6.30;99.90
11848;DHT22;5983;49.966;8.052;2022-11-20T16:25:47;6.30;99.90
11848;DHT22;5983;49.966;8.052;2022-11-20T16:28:15;6.30;99.90
11848;DHT22;5983;49.966;8.052;2022-11-20T16:30:42;6.30;99.90
11848;DHT22;5983;49.966;8.052;2022-11-20T16:33:11;6.30;99.90
11848;DHT22;5983;49.966;8.052;2022-11-20T16:35:40;6.30;99.90
11848;DHT22;5983;49.966;8.052;2022-11-20T16:38:08;6.30;99.90
11848;DHT22;5983;49.966;8.052;2022-11-20T16:40:35;6.30;99.90
11848;DHT22;5983;49.966;8.052;2022-11-20T16:43:08;6.20;99.90
11848;DHT22;5983;49.966;8.052;2022-11-20T16:45:43;6.30;99.90
11848;DHT22;5983;49.966;8.052;2022-11-20T16:48:14;6.30;99.90